Wellsboro, Indiana
Current Conditions -  °F | °C
As of 9:55 PM on Saturday 25 Oct 2014 (Local Time) from KPPO Reporting Station
Scattered Clouds Scattered Clouds  
Wind Chill: 60°   Ceiling: Unl
Heat Index: 60°   Visibility: 10mi
Dew Point: 32°   Wind: 16mph
Humidity: 34%   Direction: 320°NW
Pressure: 29.94"   Gusts: 20mph
Location:  41.4682°N, 86.7611°W
Report Text: KPPO 260255Z AUTO 32014G17KT 10SM SCT110 16/00 A2994 RMK AO2 T01581001
Loading
Personal Weather Stations






























Interactive Weather Map
Tropical Storm Tracking
New forecast layout! Learn more

10-Day Weather Forecast

Advertisements
Track Severe Weather on mobile